Barabinsk, Russia
Current Conditions -  °F | °C
As of 11:30 PM on Tuesday 21 Oct 2014 (Local Time) from UNNT Reporting Station
Overcast Overcast  
Wind Chill: 14°   Ceiling: 3700
Heat Index: 27°   Visibility: 6mi
Dew Point: 16°   Wind: 16mph
Humidity: 64%   Direction: 230°SW
Pressure: 30.09"   Gusts: NA
Location:  55.35°N, 78.35°E
Report Text: UNNT 211630Z 23007MPS 9999 OVC037CB M03/M09 Q1019 2509007016090070 NOSIG RMK QFE754/1006
Loading
Personal Weather Stations






























Interactive Weather Map
Tropical Storm Tracking
New forecast layout! Learn more

10-Day Weather Forecast

Advertisements
Track Severe Weather on mobile